sensor_id;sensor_type;location;lat;lon;timestamp;P1;durP1;ratioP1;P2;durP2;ratioP2
53867;SDS011;41577;47.470;19.080;2023-05-01T00:00:11;7.50;;;3.00;;
53867;SDS011;41577;47.470;19.080;2023-05-01T00:00:25;5.75;;;3.20;;
53867;SDS011;41577;47.470;19.080;2023-05-01T00:00:38;10.57;;;3.40;;
53867;SDS011;41577;47.470;19.080;2023-05-01T00:00:50;10.90;;;3.42;;
53867;SDS011;41577;47.470;19.080;2023-05-01T00:01:01;15.25;;;3.65;;
53867;SDS011;41577;47.470;19.080;2023-05-01T00:01:13;10.68;;;3.38;;
53867;SDS011;41577;47.470;19.080;2023-05-01T00:01:25;9.05;;;3.30;;
53867;SDS011;41577;47.470;19.080;2023-05-01T00:01:36;4.68;;;3.24;;
53867;SDS011;41577;47.470;19.080;2023-05-01T00:01:48;4.78;;;3.28;;
53867;SDS011;41577;47.470;19.080;2023-05-01T00:02:00;4.88;;;3.05;;
53867;SDS011;41577;47.470;19.080;2023-05-01T00:02:12;5.60;;;3.13;;
53867;SDS011;41577;47.470;19.080;2023-05-01T00:02:23;20.70;;;3.60;;
53867;SDS011;41577;47.470;19.080;2023-05-01T00:02:35;21.15;;;3.75;;
53867;SDS011;41577;47.470;19.080;2023-05-01T00:02:47;19.25;;;3.90;;
53867;SDS011;41577;47.470;19.080;2023-05-01T00:02:59;8.00;;;3.58;;
53867;SDS011;41577;47.470;19.080;2023-05-01T00:03:11;6.95;;;3.55;;
53867;SDS011;41577;47.470;19.080;2023-05-01T00:03:22;10.07;;;3.38;;
53867;SDS011;41577;47.470;19.080;2023-05-01T00:03:34;11.15;;;3.65;;
53867;SDS011;41577;47.470;19.080;2023-05-01T00:03:46;9.25;;;3.83;;
53867;SDS011;41577;47.470;19.080;2023-05-01T00:03:58;10.30;;;3.78;;
53867;SDS011;41577;47.470;19.080;2023-05-01T00:04:10;9.25;;;3.30;;
53867;SDS011;41577;47.470;19.080;2023-05-01T00:04:22;10.75;;;3.30;;
53867;SDS011;41577;47.470;19.080;2023-05-01T00:04:34;11.32;;;3.25;;
53867;SDS011;41577;47.470;19.080;2023-05-01T00:04:46;9.75;;;3.22;;
53867;SDS011;41577;47.470;19.080;2023-05-01T00:04:58;10.15;;;3.40;;
53867;SDS011;41577;47.470;19.080;2023-05-01T00:05:09;6.57;;;3.38;;
53867;SDS011;41577;47.470;19.080;2023-05-01T00:05:22;7.38;;;3.40;;
53867;SDS011;41577;47.470;19.080;2023-05-01T00:05:33;8.93;;;3.22;;
53867;SDS011;41577;47.470;19.080;2023-05-01T00:05:45;10.32;;;3.30;;
53867;SDS011;41577;47.470;19.080;2023-05-01T00:06:01;7.78;;;3.47;;
53867;SDS011;41577;47.470;19.080;2023-05-01T00:06:14;6.90;;;3.65;;
53867;SDS011;41577;47.470;19.080;2023-05-01T00:06:26;8.27;;;3.55;;
53867;SDS011;41577;47.470;19.080;2023-05-01T00:06:37;8.60;;;3.60;;
53867;SDS011;41577;47.470;19.080;2023-05-01T00:06:49;9.38;;;3.45;;
53867;SDS011;41577;47.470;19.080;2023-05-01T00:07:01;7.82;;;3.47;;
53867;SDS011;41577;47.470;19.080;2023-05-01T00:07:12;6.50;;;3.40;;
53867;SDS011;41577;47.470;19.080;2023-05-01T00:07:24;7.32;;;3.35;;
53867;SDS011;41577;47.470;19.080;2023-05-01T00:07:36;7.00;;;3.05;;
53867;SDS011;41577;47.470;19.080;2023-05-01T00:07:48;6.32;;;3.10;;
53867;SDS011;41577;47.470;19.080;2023-05-01T00:07:59;6.57;;;3.00;;
53867;SDS011;41577;47.470;19.080;2023-05-01T00:08:11;7.90;;;3.05;;
53867;SDS011;41577;47.470;19.080;2023-05-01T00:08:23;8.27;;;2.80;;
53867;SDS011;41577;47.470;19.080;2023-05-01T00:08:34;11.63;;;2.97;;
53867;SDS011;41577;47.470;19.080;2023-05-01T00:08:46;14.05;;;3.10;;
53867;SDS011;41577;47.470;19.080;2023-05-01T00:08:58;12.25;;;3.67;;
53867;SDS011;41577;47.470;19.080;2023-05-01T00:09:10;11.65;;;3.63;;
53867;SDS011;41577;47.470;19.080;2023-05-01T00:09:21;11.25;;;3.67;;
53867;SDS011;41577;47.470;19.080;2023-05-01T00:09:33;8.27;;;3.50;;
53867;SDS011;41577;47.470;19.080;2023-05-01T00:09:45;7.78;;;3.40;;
53867;SDS011;41577;47.470;19.080;2023-05-01T00:09:56;7.18;;;3.45;;
53867;SDS011;41577;47.470;19.080;2023-05-01T00:10:09;6.50;;;3.60;;
53867;SDS011;41577;47.470;19.080;2023-05-01T00:10:20;8.13;;;3.60;;
53867;SDS011;41577;47.470;19.080;2023-05-01T00:10:33;7.72;;;3.50;;
53867;SDS011;41577;47.470;19.080;2023-05-01T00:10:45;6.55;;;3.53;;
53867;SDS011;41577;47.470;19.080;2023-05-01T00:11:01;4.53;;;3.05;;
53867;SDS011;41577;47.470;19.080;2023-05-01T00:11:13;6.80;;;2.80;;
53867;SDS011;41577;47.470;19.080;2023-05-01T00:11:24;7.55;;;3.03;;
53867;SDS011;41577;47.470;19.080;2023-05-01T00:11:36;7.65;;;3.33;;
53867;SDS011;41577;47.470;19.080;2023-05-01T00:11:48;5.35;;;3.20;;
53867;SDS011;41577;47.470;19.080;2023-05-01T00:11:59;5.95;;;3.13;;
53867;SDS011;41577;47.470;19.080;2023-05-01T00:12:11;8.15;;;3.17;;
53867;SDS011;41577;47.470;19.080;2023-05-01T00:12:23;12.57;;;3.33;;
53867;SDS011;41577;47.470;19.080;2023-05-01T00:12:36;11.73;;;3.15;;
53867;SDS011;41577;47.470;19.080;2023-05-01T00:12:47;6.07;;;3.00;;
53867;SDS011;41577;47.470;19.080;2023-05-01T00:12:59;6.60;;;3.10;;
53867;SDS011;41577;47.470;19.080;2023-05-01T00:13:11;9.88;;;3.22;;
53867;SDS011;41577;47.470;19.080;2023-05-01T00:13:22;11.27;;;3.53;;
53867;SDS011;41577;47.470;19.080;2023-05-01T00:13:34;12.40;;;3.38;;
53867;SDS011;41577;47.470;19.080;2023-05-01T00:13:46;8.88;;;3.25;;
53867;SDS011;41577;47.470;19.080;2023-05-01T00:13:58;12.82;;;3.33;;
53867;SDS011;41577;47.470;19.080;2023-05-01T00:14:09;11.88;;;3.13;;
53867;SDS011;41577;47.470;19.080;2023-05-01T00:14:21;11.50;;;3.15;;
53867;SDS011;41577;47.470;19.080;2023-05-01T00:14:33;7.20;;;3.30;;
53867;SDS011;41577;47.470;19.080;2023-05-01T00:14:44;8.25;;;3.60;;
53867;SDS011;41577;47.470;19.080;2023-05-01T00:14:56;7.97;;;3.53;;
53867;SDS011;41577;47.470;19.080;2023-05-01T00:15:08;9.65;;;3.17;;
53867;SDS011;41577;47.470;19.080;2023-05-01T00:15:20;9.52;;;2.80;;
53867;SDS011;41577;47.470;19.080;2023-05-01T00:15:32;10.38;;;2.72;;
53867;SDS011;41577;47.470;19.080;2023-05-01T00:15:44;8.15;;;2.97;;
53867;SDS011;41577;47.470;19.080;2023-05-01T00:15:56;8.07;;;3.38;;
53867;SDS011;41577;47.470;19.080;2023-05-01T00:16:07;5.28;;;3.28;;
53867;SDS011;41577;47.470;19.080;2023-05-01T00:16:20;5.45;;;3.25;;
53867;SDS011;41577;47.470;19.080;2023-05-01T00:16:32;6.22;;;3.15;;
53867;SDS011;41577;47.470;19.080;2023-05-01T00:16:43;6.72;;;3.03;;
53867;SDS011;41577;47.470;19.080;2023-05-01T00:16:55;7.25;;;3.22;;
53867;SDS011;41577;47.470;19.080;2023-05-01T00:17:07;5.72;;;3.10;;
53867;SDS011;41577;47.470;19.080;2023-05-01T00:17:19;8.82;;;3.35;;
53867;SDS011;41577;47.470;19.080;2023-05-01T00:17:30;8.05;;;2.97;;
53867;SDS011;41577;47.470;19.080;2023-05-01T00:17:42;5.57;;;2.72;;
53867;SDS011;41577;47.470;19.080;2023-05-01T00:17:54;5.65;;;2.90;;
53867;SDS011;41577;47.470;19.080;2023-05-01T00:18:06;5.40;;;3.03;;
53867;SDS011;41577;47.470;19.080;2023-05-01T00:18:18;5.20;;;3.00;;
53867;SDS011;41577;47.470;19.080;2023-05-01T00:18:29;7.07;;;3.13;;
53867;SDS011;41577;47.470;19.080;2023-05-01T00:18:41;8.13;;;3.47;;
53867;SDS011;41577;47.470;19.080;2023-05-01T00:18:53;8.85;;;3.40;;
53867;SDS011;41577;47.470;19.080;2023-05-01T00:19:05;6.45;;;3.20;;
53867;SDS011;41577;47.470;19.080;2023-05-01T00:19:16;7.70;;;3.40;;
53867;SDS011;41577;47.470;19.080;2023-05-01T00:19:28;8.52;;;3.40;;
53867;SDS011;41577;47.470;19.080;2023-05-01T00:19:40;9.48;;;3.40;;
53867;SDS011;41577;47.470;19.080;2023-05-01T00:19:52;8.23;;;2.97;;
53867;SDS011;41577;47.470;19.080;2023-05-01T00:20:04;9.43;;;3.22;;
53867;SDS011;41577;47.470;19.080;2023-05-01T00:20:17;7.32;;;3.25;;
53867;SDS011;41577;47.470;19.080;2023-05-01T00:20:29;7.80;;;3.13;;
53867;SDS011;41577;47.470;19.080;2023-05-01T00:20:59;6.95;;;3.40;;
53867;SDS011;41577;47.470;19.080;2023-05-01T00:21:12;6.82;;;3.42;;
53867;SDS011;41577;47.470;19.080;2023-05-01T00:21:23;6.28;;;3.50;;
53867;SDS011;41577;47.470;19.080;2023-05-01T00:21:35;8.63;;;3.40;;
53867;SDS011;41577;47.470;19.080;2023-05-01T00:21:47;12.43;;;3.63;;
53867;SDS011;41577;47.470;19.080;2023-05-01T00:21:59;12.13;;;3.58;;
53867;SDS011;41577;47.470;19.080;2023-05-01T00:22:10;8.30;;;3.28;;
53867;SDS011;41577;47.470;19.080;2023-05-01T00:22:22;5.57;;;2.80;;
53867;SDS011;41577;47.470;19.080;2023-05-01T00:22:34;5.50;;;2.90;;
53867;SDS011;41577;47.470;19.080;2023-05-01T00:22:45;5.70;;;3.30;;
53867;SDS011;41577;47.470;19.080;2023-05-01T00:22:57;5.10;;;3.22;;
53867;SDS011;41577;47.470;19.080;2023-05-01T00:23:09;7.65;;;2.95;;
53867;SDS011;41577;47.470;19.080;2023-05-01T00:23:20;10.32;;;3.13;;
53867;SDS011;41577;47.470;19.080;2023-05-01T00:23:32;9.23;;;3.33;;
53867;SDS011;41577;47.470;19.080;2023-05-01T00:23:44;8.45;;;3.20;;
53867;SDS011;41577;47.470;19.080;2023-05-01T00:23:55;6.68;;;3.05;;
53867;SDS011;41577;47.470;19.080;2023-05-01T00:24:07;6.07;;;3.00;;
53867;SDS011;41577;47.470;19.080;2023-05-01T00:24:19;5.57;;;3.05;;
53867;SDS011;41577;47.470;19.080;2023-05-01T00:24:30;9.00;;;3.00;;
53867;SDS011;41577;47.470;19.080;2023-05-01T00:24:42;8.93;;;3.08;;
53867;SDS011;41577;47.470;19.080;2023-05-01T00:24:54;5.53;;;3.00;;
53867;SDS011;41577;47.470;19.080;2023-05-01T00:25:06;5.68;;;3.10;;
53867;SDS011;41577;47.470;19.080;2023-05-01T00:25:18;6.00;;;3.28;;
53867;SDS011;41577;47.470;19.080;2023-05-01T00:25:29;5.68;;;2.95;;
53867;SDS011;41577;47.470;19.080;2023-05-01T00:25:41;5.50;;;3.08;;
53867;SDS011;41577;47.470;19.080;2023-05-01T00:25:53;4.75;;;3.08;;
53867;SDS011;41577;47.470;19.080;2023-05-01T00:26:04;5.50;;;3.22;;
53867;SDS011;41577;47.470;19.080;2023-05-01T00:26:16;5.90;;;3.10;;
53867;SDS011;41577;47.470;19.080;2023-05-01T00:26:31;8.05;;;3.53;;
53867;SDS011;41577;47.470;19.080;2023-05-01T00:26:42;8.10;;;3.70;;
53867;SDS011;41577;47.470;19.080;2023-05-01T00:26:54;7.47;;;3.63;;
53867;SDS011;41577;47.470;19.080;2023-05-01T00:27:06;7.93;;;3.67;;
53867;SDS011;41577;47.470;19.080;2023-05-01T00:27:18;8.60;;;3.90;;
53867;SDS011;41577;47.470;19.080;2023-05-01T00:27:30;8.45;;;4.05;;
53867;SDS011;41577;47.470;19.080;2023-05-01T00:27:42;9.43;;;4.10;;
53867;SDS011;41577;47.470;19.080;2023-05-01T00:27:53;11.98;;;3.97;;
53867;SDS011;41577;47.470;19.080;2023-05-01T00:28:05;11.50;;;3.85;;
53867;SDS011;41577;47.470;19.080;2023-05-01T00:28:17;6.28;;;3.58;;
53867;SDS011;41577;47.470;19.080;2023-05-01T00:28:29;4.93;;;3.60;;
53867;SDS011;41577;47.470;19.080;2023-05-01T00:28:40;5.85;;;3.40;;
53867;SDS011;41577;47.470;19.080;2023-05-01T00:28:52;9.13;;;3.75;;
53867;SDS011;41577;47.470;19.080;2023-05-01T00:29:04;8.60;;;3.55;;
53867;SDS011;41577;47.470;19.080;2023-05-01T00:29:15;7.65;;;3.45;;
53867;SDS011;41577;47.470;19.080;2023-05-01T00:29:27;9.50;;;3.50;;
53867;SDS011;41577;47.470;19.080;2023-05-01T00:29:39;9.55;;;3.63;;
53867;SDS011;41577;47.470;19.080;2023-05-01T00:29:51;7.22;;;3.45;;
53867;SDS011;41577;47.470;19.080;2023-05-01T00:30:03;4.50;;;3.40;;
53867;SDS011;41577;47.470;19.080;2023-05-01T00:30:15;8.02;;;3.83;;
53867;SDS011;41577;47.470;19.080;2023-05-01T00:30:27;9.20;;;4.10;;
53867;SDS011;41577;47.470;19.080;2023-05-01T00:30:39;7.80;;;4.07;;
53867;SDS011;41577;47.470;19.080;2023-05-01T00:30:51;5.40;;;3.78;;
53867;SDS011;41577;47.470;19.080;2023-05-01T00:31:03;6.47;;;3.50;;
53867;SDS011;41577;47.470;19.080;2023-05-01T00:31:14;6.30;;;3.33;;
53867;SDS011;41577;47.470;19.080;2023-05-01T00:31:26;6.13;;;3.58;;
53867;SDS011;41577;47.470;19.080;2023-05-01T00:31:38;8.20;;;4.07;;
53867;SDS011;41577;47.470;19.080;2023-05-01T00:31:50;8.23;;;4.10;;
53867;SDS011;41577;47.470;19.080;2023-05-01T00:32:03;8.18;;;4.00;;
53867;SDS011;41577;47.470;19.080;2023-05-01T00:32:15;9.52;;;4.03;;
53867;SDS011;41577;47.470;19.080;2023-05-01T00:32:27;7.68;;;3.78;;
53867;SDS011;41577;47.470;19.080;2023-05-01T00:32:39;7.35;;;3.95;;
53867;SDS011;41577;47.470;19.080;2023-05-01T00:32:51;6.65;;;4.07;;
53867;SDS011;41577;47.470;19.080;2023-05-01T00:33:03;5.93;;;3.95;;
53867;SDS011;41577;47.470;19.080;2023-05-01T00:33:15;7.02;;;3.90;;
53867;SDS011;41577;47.470;19.080;2023-05-01T00:33:27;10.40;;;4.00;;
53867;SDS011;41577;47.470;19.080;2023-05-01T00:33:38;10.73;;;4.00;;
53867;SDS011;41577;47.470;19.080;2023-05-01T00:33:50;10.05;;;3.42;;
53867;SDS011;41577;47.470;19.080;2023-05-01T00:34:02;12.07;;;3.40;;
53867;SDS011;41577;47.470;19.080;2023-05-01T00:34:13;11.65;;;3.50;;
53867;SDS011;41577;47.470;19.080;2023-05-01T00:34:25;10.95;;;3.95;;
53867;SDS011;41577;47.470;19.080;2023-05-01T00:34:37;9.20;;;3.88;;
53867;SDS011;41577;47.470;19.080;2023-05-01T00:34:49;6.82;;;3.63;;
53867;SDS011;41577;47.470;19.080;2023-05-01T00:35:00;6.53;;;3.55;;
53867;SDS011;41577;47.470;19.080;2023-05-01T00:35:12;8.80;;;3.60;;
53867;SDS011;41577;47.470;19.080;2023-05-01T00:35:24;9.32;;;4.18;;
53867;SDS011;41577;47.470;19.080;2023-05-01T00:35:35;6.93;;;4.10;;
53867;SDS011;41577;47.470;19.080;2023-05-01T00:35:47;5.82;;;3.88;;
53867;SDS011;41577;47.470;19.080;2023-05-01T00:35:59;5.38;;;3.40;;
53867;SDS011;41577;47.470;19.080;2023-05-01T00:36:12;6.03;;;3.85;;
53867;SDS011;41577;47.470;19.080;2023-05-01T00:36:24;5.90;;;3.92;;
53867;SDS011;41577;47.470;19.080;2023-05-01T00:36:35;6.03;;;3.88;;
53867;SDS011;41577;47.470;19.080;2023-05-01T00:36:47;6.68;;;3.88;;
53867;SDS011;41577;47.470;19.080;2023-05-01T00:37:00;6.70;;;3.65;;
53867;SDS011;41577;47.470;19.080;2023-05-01T00:37:12;8.68;;;3.92;;
53867;SDS011;41577;47.470;19.080;2023-05-01T00:37:23;9.35;;;4.43;;
53867;SDS011;41577;47.470;19.080;2023-05-01T00:37:35;9.75;;;4.80;;
53867;SDS011;41577;47.470;19.080;2023-05-01T00:37:47;10.23;;;5.07;;
53867;SDS011;41577;47.470;19.080;2023-05-01T00:37:59;9.18;;;4.68;;
53867;SDS011;41577;47.470;19.080;2023-05-01T00:38:11;6.95;;;4.00;;
53867;SDS011;41577;47.470;19.080;2023-05-01T00:38:23;9.80;;;3.90;;
53867;SDS011;41577;47.470;19.080;2023-05-01T00:38:34;10.52;;;3.90;;
53867;SDS011;41577;47.470;19.080;2023-05-01T00:38:46;10.02;;;4.03;;
53867;SDS011;41577;47.470;19.080;2023-05-01T00:38:58;10.52;;;4.03;;
53867;SDS011;41577;47.470;19.080;2023-05-01T00:39:09;9.40;;;3.88;;
53867;SDS011;41577;47.470;19.080;2023-05-01T00:39:21;5.75;;;3.90;;
53867;SDS011;41577;47.470;19.080;2023-05-01T00:39:33;6.93;;;3.72;;
53867;SDS011;41577;47.470;19.080;2023-05-01T00:39:44;7.35;;;3.63;;
53867;SDS011;41577;47.470;19.080;2023-05-01T00:39:56;7.55;;;3.90;;
53867;SDS011;41577;47.470;19.080;2023-05-01T00:40:09;7.40;;;4.22;;
53867;SDS011;41577;47.470;19.080;2023-05-01T00:40:20;7.47;;;4.30;;
53867;SDS011;41577;47.470;19.080;2023-05-01T00:40:40;7.43;;;4.00;;
53867;SDS011;41577;47.470;19.080;2023-05-01T00:40:52;6.95;;;3.75;;
53867;SDS011;41577;47.470;19.080;2023-05-01T00:41:04;8.43;;;4.00;;
53867;SDS011;41577;47.470;19.080;2023-05-01T00:41:16;9.15;;;4.00;;
53867;SDS011;41577;47.470;19.080;2023-05-01T00:41:28;7.35;;;3.60;;
53867;SDS011;41577;47.470;19.080;2023-05-01T00:41:40;6.30;;;3.35;;
53867;SDS011;41577;47.470;19.080;2023-05-01T00:41:51;9.52;;;3.50;;
53867;SDS011;41577;47.470;19.080;2023-05-01T00:42:03;10.57;;;3.25;;
53867;SDS011;41577;47.470;19.080;2023-05-01T00:42:16;9.77;;;3.70;;
53867;SDS011;41577;47.470;19.080;2023-05-01T00:42:32;6.68;;;4.00;;
53867;SDS011;41577;47.470;19.080;2023-05-01T00:42:45;9.95;;;3.75;;
53867;SDS011;41577;47.470;19.080;2023-05-01T00:42:56;9.63;;;3.75;;
53867;SDS011;41577;47.470;19.080;2023-05-01T00:43:08;9.70;;;3.83;;
53867;SDS011;41577;47.470;19.080;2023-05-01T00:43:20;9.68;;;4.07;;
53867;SDS011;41577;47.470;19.080;2023-05-01T00:43:32;7.07;;;4.03;;
53867;SDS011;41577;47.470;19.080;2023-05-01T00:43:44;5.55;;;4.03;;
53867;SDS011;41577;47.470;19.080;2023-05-01T00:43:56;5.53;;;3.85;;
53867;SDS011;41577;47.470;19.080;2023-05-01T00:44:07;6.50;;;3.85;;
53867;SDS011;41577;47.470;19.080;2023-05-01T00:44:19;6.07;;;3.78;;
53867;SDS011;41577;47.470;19.080;2023-05-01T00:44:31;6.00;;;3.60;;
53867;SDS011;41577;47.470;19.080;2023-05-01T00:44:42;7.32;;;3.70;;
53867;SDS011;41577;47.470;19.080;2023-05-01T00:44:54;7.43;;;3.72;;
53867;SDS011;41577;47.470;19.080;2023-05-01T00:45:06;8.80;;;3.80;;
53867;SDS011;41577;47.470;19.080;2023-05-01T00:45:18;10.82;;;3.70;;
53867;SDS011;41577;47.470;19.080;2023-05-01T00:45:30;11.75;;;3.65;;
53867;SDS011;41577;47.470;19.080;2023-05-01T00:45:42;7.03;;;3.60;;
53867;SDS011;41577;47.470;19.080;2023-05-01T00:45:55;8.30;;;3.85;;
53867;SDS011;41577;47.470;19.080;2023-05-01T00:46:07;8.57;;;3.65;;
53867;SDS011;41577;47.470;19.080;2023-05-01T00:46:19;8.40;;;3.50;;
53867;SDS011;41577;47.470;19.080;2023-05-01T00:46:31;10.00;;;3.38;;
53867;SDS011;41577;47.470;19.080;2023-05-01T00:46:44;12.02;;;3.60;;
53867;SDS011;41577;47.470;19.080;2023-05-01T00:46:56;11.88;;;3.60;;
53867;SDS011;41577;47.470;19.080;2023-05-01T00:47:08;10.15;;;3.75;;
53867;SDS011;41577;47.470;19.080;2023-05-01T00:47:20;14.32;;;3.90;;
53867;SDS011;41577;47.470;19.080;2023-05-01T00:47:32;13.55;;;3.85;;
53867;SDS011;41577;47.470;19.080;2023-05-01T00:47:45;11.02;;;4.00;;
53867;SDS011;41577;47.470;19.080;2023-05-01T00:47:57;9.80;;;3.88;;
53867;SDS011;41577;47.470;19.080;2023-05-01T00:48:09;12.27;;;4.00;;
53867;SDS011;41577;47.470;19.080;2023-05-01T00:48:21;12.98;;;3.80;;
53867;SDS011;41577;47.470;19.080;2023-05-01T00:48:33;8.35;;;3.58;;
53867;SDS011;41577;47.470;19.080;2023-05-01T00:48:46;5.72;;;3.85;;
53867;SDS011;41577;47.470;19.080;2023-05-01T00:48:58;6.00;;;3.75;;
53867;SDS011;41577;47.470;19.080;2023-05-01T00:49:10;6.80;;;3.75;;
53867;SDS011;41577;47.470;19.080;2023-05-01T00:49:21;7.63;;;3.55;;
53867;SDS011;41577;47.470;19.080;2023-05-01T00:49:33;10.80;;;3.78;;
53867;SDS011;41577;47.470;19.080;2023-05-01T00:49:45;9.32;;;3.65;;
53867;SDS011;41577;47.470;19.080;2023-05-01T00:49:58;7.90;;;3.65;;
53867;SDS011;41577;47.470;19.080;2023-05-01T00:50:10;10.65;;;3.75;;
53867;SDS011;41577;47.470;19.080;2023-05-01T00:50:22;10.95;;;3.88;;
53867;SDS011;41577;47.470;19.080;2023-05-01T00:50:34;6.35;;;3.88;;
53867;SDS011;41577;47.470;19.080;2023-05-01T00:50:46;9.15;;;3.97;;
53867;SDS011;41577;47.470;19.080;2023-05-01T00:50:59;9.48;;;3.90;;
53867;SDS011;41577;47.470;19.080;2023-05-01T00:51:12;8.85;;;3.97;;
53867;SDS011;41577;47.470;19.080;2023-05-01T00:51:24;10.73;;;4.05;;
53867;SDS011;41577;47.470;19.080;2023-05-01T00:51:36;10.02;;;3.76;;
53867;SDS011;41577;47.470;19.080;2023-05-01T00:51:48;10.82;;;3.65;;
53867;SDS011;41577;47.470;19.080;2023-05-01T00:52:01;7.93;;;3.70;;
53867;SDS011;41577;47.470;19.080;2023-05-01T00:52:13;7.20;;;3.78;;
53867;SDS011;41577;47.470;19.080;2023-05-01T00:52:25;5.85;;;3.63;;
53867;SDS011;41577;47.470;19.080;2023-05-01T00:52:37;6.07;;;3.47;;
53867;SDS011;41577;47.470;19.080;2023-05-01T00:52:48;5.03;;;3.50;;
53867;SDS011;41577;47.470;19.080;2023-05-01T00:53:00;7.75;;;3.53;;
53867;SDS011;41577;47.470;19.080;2023-05-01T00:53:13;7.32;;;3.35;;
53867;SDS011;41577;47.470;19.080;2023-05-01T00:53:24;6.53;;;3.38;;
53867;SDS011;41577;47.470;19.080;2023-05-01T00:53:37;6.65;;;3.40;;
53867;SDS011;41577;47.470;19.080;2023-05-01T00:53:50;7.10;;;3.63;;
53867;SDS011;41577;47.470;19.080;2023-05-01T00:54:02;7.53;;;3.83;;
53867;SDS011;41577;47.470;19.080;2023-05-01T00:54:14;8.98;;;4.18;;
53867;SDS011;41577;47.470;19.080;2023-05-01T00:54:26;8.45;;;4.00;;
53867;SDS011;41577;47.470;19.080;2023-05-01T00:54:37;8.18;;;3.55;;
53867;SDS011;41577;47.470;19.080;2023-05-01T00:54:49;9.93;;;3.22;;
53867;SDS011;41577;47.470;19.080;2023-05-01T00:55:02;9.63;;;3.45;;
53867;SDS011;41577;47.470;19.080;2023-05-01T00:55:14;6.93;;;3.75;;
53867;SDS011;41577;47.470;19.080;2023-05-01T00:55:26;7.35;;;3.88;;
53867;SDS011;41577;47.470;19.080;2023-05-01T00:55:39;5.53;;;3.60;;
53867;SDS011;41577;47.470;19.080;2023-05-01T00:55:53;4.85;;;3.53;;
53867;SDS011;41577;47.470;19.080;2023-05-01T00:56:07;5.75;;;3.67;;
53867;SDS011;41577;47.470;19.080;2023-05-01T00:56:21;6.74;;;3.82;;
53867;SDS011;41577;47.470;19.080;2023-05-01T00:56:33;6.57;;;3.72;;
53867;SDS011;41577;47.470;19.080;2023-05-01T00:56:45;8.77;;;3.92;;
53867;SDS011;41577;47.470;19.080;2023-05-01T00:56:57;7.32;;;3.28;;
53867;SDS011;41577;47.470;19.080;2023-05-01T00:57:09;5.88;;;3.35;;
53867;SDS011;41577;47.470;19.080;2023-05-01T00:57:21;5.85;;;3.70;;
53867;SDS011;41577;47.470;19.080;2023-05-01T00:57:33;8.00;;;3.96;;
53867;SDS011;41577;47.470;19.080;2023-05-01T00:57:44;9.55;;;3.92;;
53867;SDS011;41577;47.470;19.080;2023-05-01T00:57:57;11.50;;;3.85;;
53867;SDS011;41577;47.470;19.080;2023-05-01T00:58:10;8.00;;;3.75;;
53867;SDS011;41577;47.470;19.080;2023-05-01T00:58:22;5.50;;;3.58;;
53867;SDS011;41577;47.470;19.080;2023-05-01T00:58:34;6.10;;;3.70;;
53867;SDS011;41577;47.470;19.080;2023-05-01T00:58:46;5.53;;;3.70;;
53867;SDS011;41577;47.470;19.080;2023-05-01T00:59:01;8.95;;;4.38;;
53867;SDS011;41577;47.470;19.080;2023-05-01T00:59:13;9.68;;;4.10;;
53867;SDS011;41577;47.470;19.080;2023-05-01T00:59:25;10.63;;;3.88;;
53867;SDS011;41577;47.470;19.080;2023-05-01T00:59:36;9.20;;;3.85;;
53867;SDS011;41577;47.470;19.080;2023-05-01T00:59:48;7.88;;;3.83;;
53867;SDS011;41577;47.470;19.080;2023-05-01T01:00:00;6.40;;;3.60;;
53867;SDS011;41577;47.470;19.080;2023-05-01T01:00:12;6.35;;;3.58;;
53867;SDS011;41577;47.470;19.080;2023-05-01T01:00:24;4.97;;;3.60;;
53867;SDS011;41577;47.470;19.080;2023-05-01T01:00:36;8.10;;;3.80;;
53867;SDS011;41577;47.470;19.080;2023-05-01T01:00:48;13.60;;;3.92;;
53867;SDS011;41577;47.470;19.080;2023-05-01T01:01:00;16.90;;;3.88;;
53867;SDS011;41577;47.470;19.080;2023-05-01T01:01:12;14.40;;;3.90;;
53867;SDS011;41577;47.470;19.080;2023-05-01T01:01:24;10.52;;;3.90;;
53867;SDS011;41577;47.470;19.080;2023-05-01T01:01:36;8.07;;;4.10;;
53867;SDS011;41577;47.470;19.080;2023-05-01T01:01:48;6.60;;;4.00;;
53867;SDS011;41577;47.470;19.080;2023-05-01T01:02:00;6.32;;;3.95;;
53867;SDS011;41577;47.470;19.080;2023-05-01T01:02:12;6.47;;;4.18;;
53867;SDS011;41577;47.470;19.080;2023-05-01T01:02:24;7.20;;;4.22;;
53867;SDS011;41577;47.470;19.080;2023-05-01T01:02:35;6.75;;;4.15;;
53867;SDS011;41577;47.470;19.080;2023-05-01T01:02:47;6.15;;;3.92;;
53867;SDS011;41577;47.470;19.080;2023-05-01T01:02:59;5.78;;;3.97;;
53867;SDS011;41577;47.470;19.080;2023-05-01T01:03:11;6.00;;;4.30;;
53867;SDS011;41577;47.470;19.080;2023-05-01T01:03:23;6.93;;;4.20;;
53867;SDS011;41577;47.470;19.080;2023-05-01T01:03:35;6.53;;;3.63;;
53867;SDS011;41577;47.470;19.080;2023-05-01T01:03:47;7.47;;;3.55;;
53867;SDS011;41577;47.470;19.080;2023-05-01T01:03:58;8.73;;;3.83;;
53867;SDS011;41577;47.470;19.080;2023-05-01T01:04:10;9.07;;;4.30;;
53867;SDS011;41577;47.470;19.080;2023-05-01T01:04:22;9.23;;;4.65;;
53867;SDS011;41577;47.470;19.080;2023-05-01T01:04:34;8.40;;;4.35;;
53867;SDS011;41577;47.470;19.080;2023-05-01T01:04:45;12.07;;;4.40;;
53867;SDS011;41577;47.470;19.080;2023-05-01T01:04:58;9.68;;;3.97;;
53867;SDS011;41577;47.470;19.080;2023-05-01T01:05:10;6.78;;;3.80;;
53867;SDS011;41577;47.470;19.080;2023-05-01T01:05:23;7.05;;;3.83;;
53867;SDS011;41577;47.470;19.080;2023-05-01T01:05:39;6.15;;;3.58;;
53867;SDS011;41577;47.470;19.080;2023-05-01T01:05:55;6.97;;;3.78;;
53867;SDS011;41577;47.470;19.080;2023-05-01T01:06:16;8.35;;;4.18;;
53867;SDS011;41577;47.470;19.080;2023-05-01T01:06:40;5.35;;;3.60;;
53867;SDS011;41577;47.470;19.080;2023-05-01T01:07:00;8.13;;;3.83;;
53867;SDS011;41577;47.470;19.080;2023-05-01T01:07:19;9.60;;;3.88;;
53867;SDS011;41577;47.470;19.080;2023-05-01T01:07:39;7.75;;;4.50;;
53867;SDS011;41577;47.470;19.080;2023-05-01T01:07:58;7.22;;;4.18;;
53867;SDS011;41577;47.470;19.080;2023-05-01T01:08:23;6.95;;;3.67;;
53867;SDS011;41577;47.470;19.080;2023-05-01T01:08:42;6.38;;;3.40;;
53867;SDS011;41577;47.470;19.080;2023-05-01T01:09:03;9.02;;;5.05;;
53867;SDS011;41577;47.470;19.080;2023-05-01T01:09:27;7.78;;;3.85;;
53867;SDS011;41577;47.470;19.080;2023-05-01T01:09:51;7.88;;;4.07;;
53867;SDS011;41577;47.470;19.080;2023-05-01T01:10:13;6.47;;;3.67;;
53867;SDS011;41577;47.470;19.080;2023-05-01T01:10:29;9.63;;;4.20;;
53867;SDS011;41577;47.470;19.080;2023-05-01T01:10:49;12.13;;;3.90;;
53867;SDS011;41577;47.470;19.080;2023-05-01T01:11:07;8.55;;;3.72;;
53867;SDS011;41577;47.470;19.080;2023-05-01T01:11:27;7.07;;;3.60;;
53867;SDS011;41577;47.470;19.080;2023-05-01T01:11:46;6.47;;;3.67;;
53867;SDS011;41577;47.470;19.080;2023-05-01T01:12:06;6.82;;;3.70;;
53867;SDS011;41577;47.470;19.080;2023-05-01T01:12:26;9.32;;;3.75;;
53867;SDS011;41577;47.470;19.080;2023-05-01T01:12:45;6.32;;;3.80;;
53867;SDS011;41577;47.470;19.080;2023-05-01T01:13:04;6.60;;;3.60;;
53867;SDS011;41577;47.470;19.080;2023-05-01T01:13:27;8.85;;;3.92;;
53867;SDS011;41577;47.470;19.080;2023-05-01T01:13:44;8.80;;;3.85;;
53867;SDS011;41577;47.470;19.080;2023-05-01T01:14:02;7.07;;;3.92;;
53867;SDS011;41577;47.470;19.080;2023-05-01T01:14:24;7.13;;;3.90;;
53867;SDS011;41577;47.470;19.080;2023-05-01T01:14:39;8.60;;;3.95;;
53867;SDS011;41577;47.470;19.080;2023-05-01T01:15:01;5.82;;;4.07;;
53867;SDS011;41577;47.470;19.080;2023-05-01T01:15:22;5.55;;;3.85;;